sensor_id;sensor_type;location;lat;lon;timestamp;pressure;altitude;pressure_sealevel;temperature;humidity
56142;BME280;42018;48.588;10.836;2023-02-17T00:01:48;97666.03;;;8.01;60.03
56142;BME280;42018;48.588;10.836;2023-02-17T00:04:34;97668.00;;;8.05;59.47
56142;BME280;42018;48.588;10.836;2023-02-17T00:07:19;97668.09;;;8.10;59.14
56142;BME280;42018;48.588;10.836;2023-02-17T00:10:06;97654.00;;;8.16;58.92
56142;BME280;42018;48.588;10.836;2023-02-17T00:12:51;97666.19;;;8.29;58.38
56142;BME280;42018;48.588;10.836;2023-02-17T00:15:37;97654.72;;;8.35;58.17
56142;BME280;42018;48.588;10.836;2023-02-17T00:18:23;97654.28;;;8.38;58.16
56142;BME280;42018;48.588;10.836;2023-02-17T00:23:58;97655.56;;;8.48;58.24
56142;BME280;42018;48.588;10.836;2023-02-17T00:26:43;97657.22;;;8.19;58.15
56142;BME280;42018;48.588;10.836;2023-02-17T00:29:29;97661.03;;;8.23;58.71
56142;BME280;42018;48.588;10.836;2023-02-17T00:32:14;97664.09;;;8.08;58.97
56142;BME280;42018;48.588;10.836;2023-02-17T00:34:59;97661.47;;;8.08;59.15
56142;BME280;42018;48.588;10.836;2023-02-17T00:37:45;97662.56;;;8.00;59.34
56142;BME280;42018;48.588;10.836;2023-02-17T00:40:30;97660.19;;;8.10;58.79
56142;BME280;42018;48.588;10.836;2023-02-17T00:43:15;97662.16;;;8.15;58.67
56142;BME280;42018;48.588;10.836;2023-02-17T00:46:01;97662.72;;;8.05;58.22
56142;BME280;42018;48.588;10.836;2023-02-17T00:48:48;97661.03;;;8.23;57.90
56142;BME280;42018;48.588;10.836;2023-02-17T00:51:33;97662.88;;;8.22;57.36
56142;BME280;42018;48.588;10.836;2023-02-17T00:54:19;97654.16;;;8.33;56.74
56142;BME280;42018;48.588;10.836;2023-02-17T00:57:04;97661.38;;;8.26;57.22
56142;BME280;42018;48.588;10.836;2023-02-17T00:59:49;97656.56;;;8.35;56.72
56142;BME280;42018;48.588;10.836;2023-02-17T01:02:35;97663.84;;;8.51;56.42
56142;BME280;42018;48.588;10.836;2023-02-17T01:05:20;97661.19;;;8.51;55.82
56142;BME280;42018;48.588;10.836;2023-02-17T01:08:05;97664.78;;;8.69;55.71
56142;BME280;42018;48.588;10.836;2023-02-17T01:10:51;97658.44;;;8.70;55.40
56142;BME280;42018;48.588;10.836;2023-02-17T01:13:37;97655.78;;;8.81;55.17
56142;BME280;42018;48.588;10.836;2023-02-17T01:16:28;97663.97;;;8.68;55.09
56142;BME280;42018;48.588;10.836;2023-02-17T01:19:16;97663.28;;;8.73;55.17
56142;BME280;42018;48.588;10.836;2023-02-17T01:22:02;97666.72;;;8.61;55.11
56142;BME280;42018;48.588;10.836;2023-02-17T01:24:48;97664.97;;;8.67;54.76
56142;BME280;42018;48.588;10.836;2023-02-17T01:27:34;97662.81;;;8.76;54.84
56142;BME280;42018;48.588;10.836;2023-02-17T01:30:19;97648.44;;;8.83;54.62
56142;BME280;42018;48.588;10.836;2023-02-17T01:33:05;97650.28;;;8.83;54.30
56142;BME280;42018;48.588;10.836;2023-02-17T01:35:50;97651.31;;;8.82;54.23
56142;BME280;42018;48.588;10.836;2023-02-17T01:38:36;97645.47;;;8.80;54.28
56142;BME280;42018;48.588;10.836;2023-02-17T01:41:23;97642.47;;;8.76;54.24
56142;BME280;42018;48.588;10.836;2023-02-17T01:44:20;97639.94;;;8.70;53.90
56142;BME280;42018;48.588;10.836;2023-02-17T01:47:11;97634.75;;;8.75;54.27
56142;BME280;42018;48.588;10.836;2023-02-17T01:49:56;97636.84;;;8.73;54.42
56142;BME280;42018;48.588;10.836;2023-02-17T01:52:43;97625.59;;;8.77;54.47
56142;BME280;42018;48.588;10.836;2023-02-17T01:55:30;97625.38;;;8.79;54.08
56142;BME280;42018;48.588;10.836;2023-02-17T01:58:18;97622.13;;;8.77;54.01
56142;BME280;42018;48.588;10.836;2023-02-17T02:01:05;97622.13;;;8.77;53.94
56142;BME280;42018;48.588;10.836;2023-02-17T02:03:52;97621.91;;;8.67;54.50
56142;BME280;42018;48.588;10.836;2023-02-17T02:06:39;97622.59;;;8.74;53.80
56142;BME280;42018;48.588;10.836;2023-02-17T02:09:38;97615.81;;;8.78;53.41
56142;BME280;42018;48.588;10.836;2023-02-17T02:15:20;97610.66;;;8.83;53.39
56142;BME280;42018;48.588;10.836;2023-02-17T02:21:35;97598.47;;;8.70;53.78
56142;BME280;42018;48.588;10.836;2023-02-17T02:36:32;97582.25;;;8.90;52.72
56142;BME280;42018;48.588;10.836;2023-02-17T02:39:24;97585.91;;;8.89;52.45
56142;BME280;42018;48.588;10.836;2023-02-17T02:42:19;97590.88;;;8.97;52.36
56142;BME280;42018;48.588;10.836;2023-02-17T02:45:08;97572.44;;;9.02;52.42
56142;BME280;42018;48.588;10.836;2023-02-17T02:47:55;97577.59;;;9.09;52.28
56142;BME280;42018;48.588;10.836;2023-02-17T02:56:41;97568.94;;;8.85;52.02
56142;BME280;42018;48.588;10.836;2023-02-17T03:11:12;97576.50;;;8.93;51.93
56142;BME280;42018;48.588;10.836;2023-02-17T03:14:12;97562.81;;;8.96;52.38
56142;BME280;42018;48.588;10.836;2023-02-17T03:16:58;97561.13;;;8.90;52.38
56142;BME280;42018;48.588;10.836;2023-02-17T03:19:43;97571.09;;;8.88;52.85
56142;BME280;42018;48.588;10.836;2023-02-17T03:22:34;97561.66;;;8.92;53.03
56142;BME280;42018;48.588;10.836;2023-02-17T03:25:20;97560.19;;;8.84;53.00
56142;BME280;42018;48.588;10.836;2023-02-17T03:28:06;97557.69;;;8.90;53.30
56142;BME280;42018;48.588;10.836;2023-02-17T03:30:51;97558.00;;;8.93;53.04
56142;BME280;42018;48.588;10.836;2023-02-17T03:33:36;97555.72;;;8.85;52.47
56142;BME280;42018;48.588;10.836;2023-02-17T03:36:22;97545.00;;;8.92;52.47
56142;BME280;42018;48.588;10.836;2023-02-17T03:39:07;97544.34;;;8.84;52.43
56142;BME280;42018;48.588;10.836;2023-02-17T03:41:52;97559.41;;;8.84;52.92
56142;BME280;42018;48.588;10.836;2023-02-17T03:44:38;97562.16;;;8.77;52.32
56142;BME280;42018;48.588;10.836;2023-02-17T03:47:23;97550.44;;;8.85;52.55
56142;BME280;42018;48.588;10.836;2023-02-17T03:50:09;97553.84;;;8.97;52.81
56142;BME280;42018;48.588;10.836;2023-02-17T03:52:54;97553.66;;;8.87;52.81
56142;BME280;42018;48.588;10.836;2023-02-17T03:55:39;97560.44;;;8.83;52.96
56142;BME280;42018;48.588;10.836;2023-02-17T03:58:25;97552.72;;;8.81;52.73
56142;BME280;42018;48.588;10.836;2023-02-17T04:01:11;97551.13;;;8.80;52.76
56142;BME280;42018;48.588;10.836;2023-02-17T04:03:57;97556.03;;;9.00;52.77
56142;BME280;42018;48.588;10.836;2023-02-17T04:06:42;97549.97;;;8.88;51.82
56142;BME280;42018;48.588;10.836;2023-02-17T04:09:28;97554.06;;;9.07;52.17
56142;BME280;42018;48.588;10.836;2023-02-17T04:12:13;97556.13;;;9.05;52.27
56142;BME280;42018;48.588;10.836;2023-02-17T04:14:58;97556.38;;;9.04;51.75
56142;BME280;42018;48.588;10.836;2023-02-17T04:17:44;97557.03;;;9.11;52.29
56142;BME280;42018;48.588;10.836;2023-02-17T04:20:29;97554.66;;;8.98;51.92
56142;BME280;42018;48.588;10.836;2023-02-17T04:23:15;97557.31;;;8.98;52.54
56142;BME280;42018;48.588;10.836;2023-02-17T04:26:01;97559.47;;;9.01;52.42
56142;BME280;42018;48.588;10.836;2023-02-17T04:28:47;97548.53;;;8.69;52.84
56142;BME280;42018;48.588;10.836;2023-02-17T04:31:32;97553.84;;;8.97;53.57
56142;BME280;42018;48.588;10.836;2023-02-17T04:34:18;97544.25;;;8.79;53.63
56142;BME280;42018;48.588;10.836;2023-02-17T04:37:03;97537.00;;;8.86;53.44
56142;BME280;42018;48.588;10.836;2023-02-17T04:39:49;97537.94;;;8.80;54.10
56142;BME280;42018;48.588;10.836;2023-02-17T04:42:37;97538.34;;;8.89;53.93
56142;BME280;42018;48.588;10.836;2023-02-17T04:45:22;97540.19;;;8.88;53.54
56142;BME280;42018;48.588;10.836;2023-02-17T04:48:08;97542.63;;;8.78;54.56
56142;BME280;42018;48.588;10.836;2023-02-17T04:50:53;97540.69;;;8.74;54.37
56142;BME280;42018;48.588;10.836;2023-02-17T04:53:38;97536.00;;;8.76;54.53
56142;BME280;42018;48.588;10.836;2023-02-17T04:56:24;97535.31;;;8.69;55.26
56142;BME280;42018;48.588;10.836;2023-02-17T04:59:09;97534.03;;;8.71;54.96
56142;BME280;42018;48.588;10.836;2023-02-17T05:01:54;97541.56;;;8.91;55.03
56142;BME280;42018;48.588;10.836;2023-02-17T05:04:40;97540.06;;;8.95;54.56
56142;BME280;42018;48.588;10.836;2023-02-17T05:07:25;97534.25;;;8.81;54.82
56142;BME280;42018;48.588;10.836;2023-02-17T05:10:12;97533.34;;;8.76;54.94
56142;BME280;42018;48.588;10.836;2023-02-17T05:12:57;97534.28;;;8.70;55.69
56142;BME280;42018;48.588;10.836;2023-02-17T05:15:44;97527.47;;;8.74;54.82
56142;BME280;42018;48.588;10.836;2023-02-17T05:18:29;97529.75;;;8.82;55.08
56142;BME280;42018;48.588;10.836;2023-02-17T05:21:14;97525.06;;;8.84;54.75
56142;BME280;42018;48.588;10.836;2023-02-17T05:24:00;97530.13;;;8.74;55.17
56142;BME280;42018;48.588;10.836;2023-02-17T05:26:45;97543.13;;;8.63;55.47
56142;BME280;42018;48.588;10.836;2023-02-17T05:29:31;97526.69;;;8.73;55.28
56142;BME280;42018;48.588;10.836;2023-02-17T05:32:17;97528.56;;;8.61;55.80
56142;BME280;42018;48.588;10.836;2023-02-17T05:35:02;97534.75;;;8.67;56.41
56142;BME280;42018;48.588;10.836;2023-02-17T05:37:48;97523.13;;;8.68;55.90
56142;BME280;42018;48.588;10.836;2023-02-17T05:40:33;97533.97;;;8.54;55.87
56142;BME280;42018;48.588;10.836;2023-02-17T05:43:18;97532.91;;;8.67;56.53
56142;BME280;42018;48.588;10.836;2023-02-17T05:46:04;97543.38;;;8.62;56.30
56142;BME280;42018;48.588;10.836;2023-02-17T05:48:50;97542.66;;;8.67;56.23
56142;BME280;42018;48.588;10.836;2023-02-17T05:51:36;97528.91;;;8.53;56.46
56142;BME280;42018;48.588;10.836;2023-02-17T05:54:21;97539.25;;;8.54;56.81
56142;BME280;42018;48.588;10.836;2023-02-17T05:57:07;97538.09;;;8.62;56.71
56142;BME280;42018;48.588;10.836;2023-02-17T05:59:52;97539.13;;;8.61;56.89
56142;BME280;42018;48.588;10.836;2023-02-17T06:02:37;97536.50;;;8.61;56.86
56142;BME280;42018;48.588;10.836;2023-02-17T06:05:23;97535.75;;;8.77;56.80
56142;BME280;42018;48.588;10.836;2023-02-17T06:08:08;97535.66;;;8.72;57.21
56142;BME280;42018;48.588;10.836;2023-02-17T06:10:53;97556.34;;;8.75;56.38
56142;BME280;42018;48.588;10.836;2023-02-17T06:13:39;97549.75;;;8.78;56.70
56142;BME280;42018;48.588;10.836;2023-02-17T06:16:24;97557.13;;;8.76;56.78
56142;BME280;42018;48.588;10.836;2023-02-17T06:19:09;97549.66;;;8.73;56.84
56142;BME280;42018;48.588;10.836;2023-02-17T06:21:55;97558.16;;;8.75;56.91
56142;BME280;42018;48.588;10.836;2023-02-17T06:24:41;97543.63;;;8.89;56.81
56142;BME280;42018;48.588;10.836;2023-02-17T06:27:26;97549.41;;;8.86;56.82
56142;BME280;42018;48.588;10.836;2023-02-17T06:30:12;97551.47;;;8.84;56.97
56142;BME280;42018;48.588;10.836;2023-02-17T06:32:58;97552.53;;;8.71;57.58
56142;BME280;42018;48.588;10.836;2023-02-17T06:35:50;97556.00;;;8.72;57.48
56142;BME280;42018;48.588;10.836;2023-02-17T06:38:36;97536.88;;;8.93;56.56
56142;BME280;42018;48.588;10.836;2023-02-17T06:41:21;97554.56;;;8.81;57.01
56142;BME280;42018;48.588;10.836;2023-02-17T06:44:07;97559.19;;;8.74;57.37
56142;BME280;42018;48.588;10.836;2023-02-17T06:46:52;97557.22;;;8.81;56.95
56142;BME280;42018;48.588;10.836;2023-02-17T06:49:38;97551.50;;;8.72;57.41
56142;BME280;42018;48.588;10.836;2023-02-17T06:52:23;97560.22;;;8.73;57.18
56142;BME280;42018;48.588;10.836;2023-02-17T06:55:09;97558.03;;;8.81;57.40
56142;BME280;42018;48.588;10.836;2023-02-17T06:57:54;97558.81;;;8.82;58.08
56142;BME280;42018;48.588;10.836;2023-02-17T07:00:40;97558.16;;;8.75;57.89
56142;BME280;42018;48.588;10.836;2023-02-17T07:03:25;97559.19;;;8.74;58.61
56142;BME280;42018;48.588;10.836;2023-02-17T07:06:11;97569.88;;;8.67;58.27
56142;BME280;42018;48.588;10.836;2023-02-17T07:08:56;97569.25;;;8.88;58.34
56142;BME280;42018;48.588;10.836;2023-02-17T07:11:41;97552.81;;;8.98;57.78
56142;BME280;42018;48.588;10.836;2023-02-17T07:14:31;97559.34;;;9.07;57.32
56142;BME280;42018;48.588;10.836;2023-02-17T07:17:17;97574.16;;;9.08;57.57
56142;BME280;42018;48.588;10.836;2023-02-17T07:20:02;97567.50;;;9.06;57.65
56142;BME280;42018;48.588;10.836;2023-02-17T07:22:48;97577.53;;;8.92;58.38
56142;BME280;42018;48.588;10.836;2023-02-17T07:25:33;97574.00;;;8.86;58.91
56142;BME280;42018;48.588;10.836;2023-02-17T07:28:19;97565.69;;;8.95;58.63
56142;BME280;42018;48.588;10.836;2023-02-17T07:31:12;97567.75;;;8.93;58.89
56142;BME280;42018;48.588;10.836;2023-02-17T07:33:58;97578.88;;;9.06;58.99
56142;BME280;42018;48.588;10.836;2023-02-17T07:36:44;97571.66;;;9.02;59.41
56142;BME280;42018;48.588;10.836;2023-02-17T07:39:29;97565.75;;;9.11;59.21
56142;BME280;42018;48.588;10.836;2023-02-17T07:42:15;97565.56;;;9.01;59.54
56142;BME280;42018;48.588;10.836;2023-02-17T07:45:00;97564.19;;;8.99;59.43
56142;BME280;42018;48.588;10.836;2023-02-17T07:47:45;97575.63;;;9.16;58.77
56142;BME280;42018;48.588;10.836;2023-02-17T07:50:31;97560.69;;;9.10;59.35
56142;BME280;42018;48.588;10.836;2023-02-17T07:53:16;97575.50;;;9.23;58.95
56142;BME280;42018;48.588;10.836;2023-02-17T07:56:06;97571.06;;;9.11;59.01
56142;BME280;42018;48.588;10.836;2023-02-17T07:58:52;97570.28;;;9.28;59.37
56142;BME280;42018;48.588;10.836;2023-02-17T08:01:37;97570.88;;;9.30;59.42
56142;BME280;42018;48.588;10.836;2023-02-17T08:04:23;97580.31;;;9.26;59.15
56142;BME280;42018;48.588;10.836;2023-02-17T08:07:08;97580.59;;;9.41;58.99
56142;BME280;42018;48.588;10.836;2023-02-17T08:09:54;97588.91;;;9.33;58.93
56142;BME280;42018;48.588;10.836;2023-02-17T08:12:58;97570.94;;;9.35;59.52
56142;BME280;42018;48.588;10.836;2023-02-17T08:16:02;97575.22;;;9.36;59.50
56142;BME280;42018;48.588;10.836;2023-02-17T08:18:47;97592.22;;;9.40;59.31
56142;BME280;42018;48.588;10.836;2023-02-17T08:21:33;97581.56;;;9.52;59.40
56142;BME280;42018;48.588;10.836;2023-02-17T08:24:18;97579.19;;;9.50;59.15
56142;BME280;42018;48.588;10.836;2023-02-17T08:27:05;97577.75;;;9.59;59.31
56142;BME280;42018;48.588;10.836;2023-02-17T08:29:50;97584.00;;;9.70;59.47
56142;BME280;42018;48.588;10.836;2023-02-17T08:32:35;97586.97;;;9.74;58.29
56142;BME280;42018;48.588;10.836;2023-02-17T08:35:21;97579.69;;;9.81;58.17
56142;BME280;42018;48.588;10.836;2023-02-17T08:38:06;97578.09;;;9.80;58.17
56142;BME280;42018;48.588;10.836;2023-02-17T08:40:52;97576.81;;;9.99;58.08
56142;BME280;42018;48.588;10.836;2023-02-17T08:43:37;97578.75;;;10.04;57.77
56142;BME280;42018;48.588;10.836;2023-02-17T08:46:23;97580.03;;;10.35;57.75
56142;BME280;42018;48.588;10.836;2023-02-17T08:49:09;97579.06;;;10.41;58.01
56142;BME280;42018;48.588;10.836;2023-02-17T08:51:55;97573.53;;;10.43;56.84
56142;BME280;42018;48.588;10.836;2023-02-17T08:54:40;97576.75;;;10.67;57.02
56142;BME280;42018;48.588;10.836;2023-02-17T08:57:26;97576.09;;;10.76;57.15
56142;BME280;42018;48.588;10.836;2023-02-17T09:00:12;97581.50;;;11.03;56.15
56142;BME280;42018;48.588;10.836;2023-02-17T09:02:57;97580.78;;;11.13;56.48
56142;BME280;42018;48.588;10.836;2023-02-17T09:05:43;97578.84;;;11.31;55.36
56142;BME280;42018;48.588;10.836;2023-02-17T09:08:28;97582.09;;;11.11;55.91
56142;BME280;42018;48.588;10.836;2023-02-17T09:11:14;97578.31;;;11.29;56.17
56142;BME280;42018;48.588;10.836;2023-02-17T09:14:01;97589.63;;;11.19;56.03
56142;BME280;42018;48.588;10.836;2023-02-17T09:16:46;97580.66;;;11.25;56.52
56142;BME280;42018;48.588;10.836;2023-02-17T09:19:32;97581.44;;;11.47;56.41
56142;BME280;42018;48.588;10.836;2023-02-17T09:22:17;97594.25;;;11.07;56.27
56142;BME280;42018;48.588;10.836;2023-02-17T09:25:05;97601.19;;;11.13;56.87
56142;BME280;42018;48.588;10.836;2023-02-17T09:27:50;97588.06;;;11.01;57.70
56142;BME280;42018;48.588;10.836;2023-02-17T09:30:35;97594.75;;;11.03;58.05
56142;BME280;42018;48.588;10.836;2023-02-17T09:33:21;97601.72;;;11.32;57.84
56142;BME280;42018;48.588;10.836;2023-02-17T09:36:08;97601.50;;;11.16;57.91
56142;BME280;42018;48.588;10.836;2023-02-17T09:38:55;97589.53;;;11.36;58.30
56142;BME280;42018;48.588;10.836;2023-02-17T09:41:44;97589.84;;;11.66;57.58
56142;BME280;42018;48.588;10.836;2023-02-17T09:44:39;97594.28;;;11.34;57.19
56142;BME280;42018;48.588;10.836;2023-02-17T09:47:31;97587.09;;;11.56;58.00
56142;BME280;42018;48.588;10.836;2023-02-17T09:50:23;97594.75;;;11.80;56.99
56142;BME280;42018;48.588;10.836;2023-02-17T09:56:04;97585.53;;;12.19;57.08
56142;BME280;42018;48.588;10.836;2023-02-17T09:58:54;97571.25;;;12.26;56.43
56142;BME280;42018;48.588;10.836;2023-02-17T10:01:43;97586.63;;;11.86;57.28
56142;BME280;42018;48.588;10.836;2023-02-17T10:04:37;97596.25;;;11.97;57.76
56142;BME280;42018;48.588;10.836;2023-02-17T10:07:32;97580.53;;;11.64;58.61
56142;BME280;42018;48.588;10.836;2023-02-17T10:10:31;97581.06;;;11.66;59.16
56142;BME280;42018;48.588;10.836;2023-02-17T10:13:20;97581.66;;;11.73;59.50
56142;BME280;42018;48.588;10.836;2023-02-17T10:16:14;97587.00;;;12.00;59.04
56142;BME280;42018;48.588;10.836;2023-02-17T10:19:21;97588.66;;;12.06;58.96
56142;BME280;42018;48.588;10.836;2023-02-17T10:22:21;97593.38;;;11.99;58.83
56142;BME280;42018;48.588;10.836;2023-02-17T10:25:18;97594.75;;;12.07;59.55
56142;BME280;42018;48.588;10.836;2023-02-17T10:28:09;97587.84;;;11.79;59.95
56142;BME280;42018;48.588;10.836;2023-02-17T10:31:01;97595.16;;;11.93;59.65
56142;BME280;42018;48.588;10.836;2023-02-17T10:36:52;97596.09;;;11.82;59.52
56142;BME280;42018;48.588;10.836;2023-02-17T10:39:48;97590.47;;;12.06;59.76
56142;BME280;42018;48.588;10.836;2023-02-17T10:42:35;97589.44;;;12.07;59.54
56142;BME280;42018;48.588;10.836;2023-02-17T10:45:29;97594.38;;;12.30;59.17
56142;BME280;42018;48.588;10.836;2023-02-17T10:51:33;97588.66;;;12.06;59.38
56142;BME280;42018;48.588;10.836;2023-02-17T10:54:30;97595.13;;;11.88;59.86
56142;BME280;42018;48.588;10.836;2023-02-17T10:57:18;97590.47;;;12.06;60.18
56142;BME280;42018;48.588;10.836;2023-02-17T11:00:06;97588.34;;;12.03;59.83
56142;BME280;42018;48.588;10.836;2023-02-17T11:02:53;97589.69;;;12.05;60.48
56142;BME280;42018;48.588;10.836;2023-02-17T11:05:40;97582.34;;;12.17;60.40
56142;BME280;42018;48.588;10.836;2023-02-17T11:11:25;97587.63;;;12.50;59.40
56142;BME280;42018;48.588;10.836;2023-02-17T11:14:25;97585.97;;;12.38;59.23
56142;BME280;42018;48.588;10.836;2023-02-17T11:17:35;97586.19;;;12.00;60.66
56142;BME280;42018;48.588;10.836;2023-02-17T11:28:53;97571.97;;;12.16;61.24
56142;BME280;42018;48.588;10.836;2023-02-17T11:31:38;97570.41;;;12.20;60.81
56142;BME280;42018;48.588;10.836;2023-02-17T11:34:28;97565.28;;;12.08;61.58
56142;BME280;42018;48.588;10.836;2023-02-17T11:37:20;97558.97;;;12.19;61.56
56142;BME280;42018;48.588;10.836;2023-02-17T11:40:22;97543.03;;;12.19;61.57
56142;BME280;42018;48.588;10.836;2023-02-17T11:43:15;97542.06;;;11.93;62.09
56142;BME280;42018;48.588;10.836;2023-02-17T12:07:54;97550.66;;;12.48;61.65
56142;BME280;42018;48.588;10.836;2023-02-17T12:16:54;97527.25;;;12.45;62.52
56142;BME280;42018;48.588;10.836;2023-02-17T12:25:47;97524.22;;;12.26;62.38
56142;BME280;42018;48.588;10.836;2023-02-17T12:28:42;97528.72;;;12.26;62.84
56142;BME280;42018;48.588;10.836;2023-02-17T12:31:59;97533.28;;;12.30;63.11
56142;BME280;42018;48.588;10.836;2023-02-17T12:35:00;97531.69;;;12.29;62.99
56142;BME280;42018;48.588;10.836;2023-02-17T12:37:51;97527.44;;;12.28;62.23
56142;BME280;42018;48.588;10.836;2023-02-17T12:40:40;97523.19;;;12.32;62.56
56142;BME280;42018;48.588;10.836;2023-02-17T12:43:34;97520.97;;;12.19;63.43
56142;BME280;42018;48.588;10.836;2023-02-17T12:46:24;97522.19;;;12.43;63.10
56142;BME280;42018;48.588;10.836;2023-02-17T12:52:05;97535.41;;;12.33;64.08
56142;BME280;42018;48.588;10.836;2023-02-17T12:54:58;97526.66;;;12.33;64.04
56142;BME280;42018;48.588;10.836;2023-02-17T12:57:53;97537.47;;;12.21;64.98
56142;BME280;42018;48.588;10.836;2023-02-17T13:01:08;97529.50;;;12.21;64.88
56142;BME280;42018;48.588;10.836;2023-02-17T13:03:53;97526.44;;;12.39;64.86
56142;BME280;42018;48.588;10.836;2023-02-17T13:06:42;97540.22;;;12.36;64.59
56142;BME280;42018;48.588;10.836;2023-02-17T13:09:36;97536.22;;;12.34;64.74
56142;BME280;42018;48.588;10.836;2023-02-17T13:15:30;97518.16;;;11.93;67.01
56142;BME280;42018;48.588;10.836;2023-02-17T13:24:33;97520.84;;;11.98;67.65
56142;BME280;42018;48.588;10.836;2023-02-17T13:27:20;97528.75;;;11.88;67.58
56142;BME280;42018;48.588;10.836;2023-02-17T13:30:26;97521.81;;;11.87;68.14
56142;BME280;42018;48.588;10.836;2023-02-17T13:36:16;97521.50;;;12.16;66.97
56142;BME280;42018;48.588;10.836;2023-02-17T13:48:26;97524.66;;;12.13;67.08
56142;BME280;42018;48.588;10.836;2023-02-17T13:51:26;97526.00;;;11.83;67.81
56142;BME280;42018;48.588;10.836;2023-02-17T13:54:13;97530.88;;;11.91;67.77
56142;BME280;42018;48.588;10.836;2023-02-17T13:57:03;97515.09;;;12.12;67.51
56142;BME280;42018;48.588;10.836;2023-02-17T13:59:49;97515.06;;;12.07;67.80
56142;BME280;42018;48.588;10.836;2023-02-17T14:02:37;97524.25;;;11.89;67.20
56142;BME280;42018;48.588;10.836;2023-02-17T14:11:22;97519.31;;;12.03;66.92
56142;BME280;42018;48.588;10.836;2023-02-17T14:14:10;97517.16;;;12.05;67.10
56142;BME280;42018;48.588;10.836;2023-02-17T14:19:51;97512.44;;;12.12;67.93
56142;BME280;42018;48.588;10.836;2023-02-17T14:22:36;97513.53;;;12.16;67.32
56142;BME280;42018;48.588;10.836;2023-02-17T14:25:28;97518.84;;;12.16;67.15
56142;BME280;42018;48.588;10.836;2023-02-17T14:28:24;97516.97;;;12.16;67.35
56142;BME280;42018;48.588;10.836;2023-02-17T14:31:10;97516.84;;;11.96;68.13
56142;BME280;42018;48.588;10.836;2023-02-17T14:34:02;97504.44;;;12.07;67.86
56142;BME280;42018;48.588;10.836;2023-02-17T14:36:48;97519.81;;;12.00;67.93
56142;BME280;42018;48.588;10.836;2023-02-17T14:39:33;97514.31;;;12.16;67.57
56142;BME280;42018;48.588;10.836;2023-02-17T14:42:19;97519.91;;;12.20;67.82
56142;BME280;42018;48.588;10.836;2023-02-17T14:58:38;97492.31;;;11.84;69.94
56142;BME280;42018;48.588;10.836;2023-02-17T15:01:25;97486.88;;;12.01;69.68
56142;BME280;42018;48.588;10.836;2023-02-17T15:04:10;97497.13;;;11.87;69.64
56142;BME280;42018;48.588;10.836;2023-02-17T15:06:56;97499.63;;;12.04;69.38
56142;BME280;42018;48.588;10.836;2023-02-17T15:14:51;97493.13;;;12.27;68.36
56142;BME280;42018;48.588;10.836;2023-02-17T15:22:45;97487.59;;;12.33;67.80
56142;BME280;42018;48.588;10.836;2023-02-17T15:30:36;97476.91;;;12.23;67.98
56142;BME280;42018;48.588;10.836;2023-02-17T15:33:23;97482.69;;;12.10;68.33
56142;BME280;42018;48.588;10.836;2023-02-17T15:36:13;97468.84;;;12.03;68.34
56142;BME280;42018;48.588;10.836;2023-02-17T15:39:00;97480.03;;;12.10;69.01
56142;BME280;42018;48.588;10.836;2023-02-17T15:41:46;97465.69;;;12.11;68.12
56142;BME280;42018;48.588;10.836;2023-02-17T15:44:41;97461.41;;;12.05;68.70
56142;BME280;42018;48.588;10.836;2023-02-17T15:47:28;97461.09;;;11.96;68.46
56142;BME280;42018;48.588;10.836;2023-02-17T15:50:17;97462.47;;;12.04;68.83
56142;BME280;42018;48.588;10.836;2023-02-17T15:53:04;97458.66;;;11.94;68.68
56142;BME280;42018;48.588;10.836;2023-02-17T15:55:51;97464.63;;;11.74;68.38
56142;BME280;42018;48.588;10.836;2023-02-17T15:58:36;97455.72;;;11.86;68.38
56142;BME280;42018;48.588;10.836;2023-02-17T16:01:27;97465.44;;;11.75;68.73
56142;BME280;42018;48.588;10.836;2023-02-17T16:04:13;97454.59;;;11.82;68.32
56142;BME280;42018;48.588;10.836;2023-02-17T16:06:59;97465.72;;;11.79;68.19
56142;BME280;42018;48.588;10.836;2023-02-17T16:09:44;97461.91;;;11.69;68.39
56142;BME280;42018;48.588;10.836;2023-02-17T16:12:30;97459.06;;;11.76;68.31
56142;BME280;42018;48.588;10.836;2023-02-17T16:15:22;97462.59;;;11.55;68.47
56142;BME280;42018;48.588;10.836;2023-02-17T16:18:20;97468.47;;;11.57;68.38
56142;BME280;42018;48.588;10.836;2023-02-17T16:21:09;97475.34;;;11.53;68.57
56142;BME280;42018;48.588;10.836;2023-02-17T16:23:54;97470.44;;;11.39;68.75
56142;BME280;42018;48.588;10.836;2023-02-17T16:26:44;97476.34;;;11.46;68.93
56142;BME280;42018;48.588;10.836;2023-02-17T16:29:29;97478.00;;;11.53;68.40
56142;BME280;42018;48.588;10.836;2023-02-17T16:32:15;97478.63;;;11.33;69.32
56142;BME280;42018;48.588;10.836;2023-02-17T16:35:00;97477.22;;;11.25;69.35
56142;BME280;42018;48.588;10.836;2023-02-17T16:38:01;97477.22;;;11.25;69.35
56142;BME280;42018;48.588;10.836;2023-02-17T16:40:48;97482.53;;;11.25;69.24
56142;BME280;42018;48.588;10.836;2023-02-17T16:43:34;97473.81;;;11.30;69.27
56142;BME280;42018;48.588;10.836;2023-02-17T16:46:28;97481.47;;;11.26;69.11
56142;BME280;42018;48.588;10.836;2023-02-17T16:49:28;97474.59;;;11.30;68.83
56142;BME280;42018;48.588;10.836;2023-02-17T16:52:23;97474.59;;;11.30;68.97
56142;BME280;42018;48.588;10.836;2023-02-17T16:55:20;97492.03;;;11.21;69.38
56142;BME280;42018;48.588;10.836;2023-02-17T16:58:19;97498.38;;;11.20;69.88
56142;BME280;42018;48.588;10.836;2023-02-17T17:01:05;97495.22;;;11.23;69.83
56142;BME280;42018;48.588;10.836;2023-02-17T17:03:56;97496.22;;;11.17;70.07
56142;BME280;42018;48.588;10.836;2023-02-17T17:06:47;97490.91;;;11.17;70.18
56142;BME280;42018;48.588;10.836;2023-02-17T17:09:33;97514.75;;;11.12;70.44
56142;BME280;42018;48.588;10.836;2023-02-17T17:15:04;97518.94;;;11.08;70.75
56142;BME280;42018;48.588;10.836;2023-02-17T17:20:41;97512.84;;;11.07;70.97
56142;BME280;42018;48.588;10.836;2023-02-17T17:23:27;97505.53;;;11.19;70.45
56142;BME280;42018;48.588;10.836;2023-02-17T17:26:21;97511.03;;;11.13;70.90